CYPK weather

Pitt Meadows Airport
Pitt Meadows, British Columbia, Canada

Public forecast

Using degrees Celsius for public forecast. Weather courtesy of forecast.io.

Closest aviation weather report (METAR) to Pitt Meadows Airport

Closest report is Abbotsford Airport, 17.9 nm (33.1 km) SE. Retrieved 2020/01/24 01:13 UTC (13 minutes ago):

CYXX 240113Z CCA 36005KT 2 1/2SM RA BR FEW003 BKN029 OVC033 06/05 A2984 RMK SF1SC6NS1 SLP106

Closest aviation forecast (TAF) to Pitt Meadows Airport

Closest forecast is Abbotsford Airport, 17.9 nm (33.1 km) SE. Retrieved 2020-01-24 00:42 UTC (44 minutes ago):

TAF CYXX 232339Z 2400/2424 14007KT P6SM FEW003 SCT012 BKN025 TEMPO 2400/2407 21/2SM -SHRA BR BKN003 FM240700 10008KT 6SM -RA BR SCT003 BKN012 TEMPO 2407/2422 11/2SM -SHRA BR BKN003 BECMG 2410/2412 VRB03KT FM242200 18012KT P6SM SCT008 BKN020 TEMPO 2422/2424 3SM -SHRA BR BKN008 RMK NXT FCST BY 240600Z